This is the latest recevied weather packets stored in our database for station/object HA5CD-6. If no packets are shown the sender has not sent any weather packets the latest 1 day(s).
| Time | Temp. | Humidity | Pressure | Rain* | Wind** | Luminosity | Snow |
|---|---|---|---|---|---|---|---|
| 1778095438 | 21.67° C | 51% | 987 hPa | - | - | - | - |
| 1778094179 | 21.11° C | 51% | 987 hPa | - | - | - | - |
| 1778093579 | 21.11° C | 51% | 987 hPa | - | - | - | - |
| 1778089999 | 22.78° C | 45% | 986 hPa | - | - | - | - |
| 1778088778 | 23.33° C | 42% | 986 hPa | - | - | - | - |
| 1778088178 | 23.89° C | 40% | 986 hPa | - | - | - | - |
| 1778083377 | 28.89° C | 30% | 986 hPa | - | - | - | - |
| 1778079776 | 27.78° C | 31% | 987 hPa | - | - | - | - |
| 1778079176 | 31.11° C | 26% | 986 hPa | - | - | - | - |
| 1778078011 | 31.11° C | 25% | 987 hPa | - | - | - | - |
| 1778076803 | 30° C | 27% | 987 hPa | - | - | - | - |
| 1778072574 | 28.89° C | 29% | 987 hPa | - | - | - | - |
| 1778068379 | 27.78° C | 32% | 988 hPa | - | - | - | - |
| 1778067773 | 27.22° C | 32% | 988 hPa | - | - | - | - |
| 1778066573 | 27.22° C | 32% | 988 hPa | - | - | - | - |
| 1778065375 | 27.22° C | 35% | 988 hPa | - | - | - | - |
| 1778062972 | 25.56° C | 37% | 988 hPa | - | - | - | - |
| 1778062422 | 26.67° C | 36% | 988 hPa | - | - | - | - |
| 1778061796 | 26.67° C | 37% | 988 hPa | - | - | - | - |
| 1778059973 | 26.67° C | 37% | 988 hPa | - | - | - | - |
| 1778058170 | 26.11° C | 36% | 988 hPa | - | - | - | - |
| 1778054570 | 27.78° C | 34% | 988 hPa | - | - | - | - |
| 1778053371 | 26.67° C | 36% | 988 hPa | - | - | - | - |
| 1778051569 | 26.11° C | 37% | 988 hPa | - | - | - | - |
| 1778049786 | 25° C | 40% | 988 hPa | - | - | - | - |
* Rain since midnight (hover to see other rain measurements)
** Current wind speed in m/s (hover to see current wind gust speed)